Time;durP1;ratioP1;P1;durP2;ratioP2;P2;SDS_P1;SDS_P2;PMS_P1;PMS_P2;Temp;Humidity;BMP_temperature;BMP_pressure;BME280_temperature;BME280_humidity;BME280_pressure;Samples;Min_cycle;Max_cycle;Signal;HPM_P1;HPM_P2
2022/11/24 00:00:51;;;;;;;19.03;4.53;;;;;;;;;;6309015;22;20148;-69
2022/11/24 00:03:16;;;;;;;27.40;4.53;;;;;;;;;;6307005;22;20160;-69
2022/11/24 00:05:42;;;;;;;19.37;4.27;;;;;;;;;;6309056;22;20145;-69
2022/11/24 00:08:09;;;;;;;17.47;4.80;;;;;;;;;;6308512;22;20175;-69
2022/11/24 00:10:34;;;;;;;17.77;4.63;;;;;;;;;;6306900;22;20518;-69
2022/11/24 00:13:00;;;;;;;11.93;3.90;;;;;;;;;;6309061;22;20145;-69
2022/11/24 00:15:26;;;;;;;23.90;4.67;;;;;;;;;;6308969;22;20149;-70
2022/11/24 00:17:52;;;;;;;19.20;4.40;;;;;;;;;;6307038;22;20649;-69
2022/11/24 00:20:18;;;;;;;24.83;5.03;;;;;;;;;;6308840;22;20153;-69
2022/11/24 00:22:44;;;;;;;19.73;4.23;;;;;;;;;;6309564;22;20156;-69
2022/11/24 00:25:10;;;;;;;24.63;4.37;;;;;;;;;;6309168;22;20148;-67
2022/11/24 00:27:36;;;;;;;18.53;4.80;;;;;;;;;;6307812;22;20165;-69
2022/11/24 00:30:02;;;;;;;18.40;4.80;;;;;;;;;;6310068;22;20179;-69
2022/11/24 00:32:28;;;;;;;23.47;4.83;;;;;;;;;;6308799;22;20610;-70
2022/11/24 00:34:54;;;;;;;23.40;4.43;;;;;;;;;;6308849;22;20148;-69
2022/11/24 00:37:20;;;;;;;16.17;4.00;;;;;;;;;;6308615;22;20180;-69
2022/11/24 00:39:47;;;;;;;19.37;4.87;;;;;;;;;;6308297;22;20192;-70
2022/11/24 00:42:13;;;;;;;24.70;4.53;;;;;;;;;;6306816;22;20553;-70
2022/11/24 00:44:39;;;;;;;19.30;5.10;;;;;;;;;;6308614;22;20524;-69
2022/11/24 00:47:05;;;;;;;21.47;4.80;;;;;;;;;;6308434;22;20201;-70
2022/11/24 00:49:31;;;;;;;28.00;4.80;;;;;;;;;;6306146;22;20263;-69
2022/11/24 00:51:57;;;;;;;17.43;4.50;;;;;;;;;;6308350;22;20228;-70
2022/11/24 00:54:23;;;;;;;20.00;4.80;;;;;;;;;;6308523;22;20223;-70
2022/11/24 00:56:50;;;;;;;20.23;4.87;;;;;;;;;;6306827;22;20480;-70
2022/11/24 00:59:16;;;;;;;27.37;4.73;;;;;;;;;;6306849;22;20712;-69
2022/11/24 01:01:42;;;;;;;16.37;4.17;;;;;;;;;;6306727;22;20156;-70
2022/11/24 01:04:08;;;;;;;19.03;4.53;;;;;;;;;;6308469;22;20230;-69
2022/11/24 01:06:35;;;;;;;19.93;4.70;;;;;;;;;;6306625;22;20152;-70
2022/11/24 01:09:01;;;;;;;14.83;3.93;;;;;;;;;;6308383;22;20177;-68
2022/11/24 01:11:27;;;;;;;19.00;4.63;;;;;;;;;;6308506;22;20171;-67
2022/11/24 01:13:56;;;;;;;19.10;4.37;;;;;;;;;;6308423;22;20594;-68
2022/11/24 01:16:27;;;;;;;24.37;4.60;;;;;;;;;;6308366;22;20148;-68
2022/11/24 01:18:53;;;;;;;16.30;4.00;;;;;;;;;;6306410;22;20176;-68
2022/11/24 01:21:20;;;;;;;25.53;5.37;;;;;;;;;;6306829;22;20156;-69
2022/11/24 01:23:46;;;;;;;19.80;4.57;;;;;;;;;;6306685;22;20235;-69
2022/11/24 01:26:13;;;;;;;25.07;4.57;;;;;;;;;;6306609;22;20160;-69
2022/11/24 01:28:39;;;;;;;19.03;4.10;;;;;;;;;;6307853;22;20626;-68
2022/11/24 01:31:06;;;;;;;16.27;4.33;;;;;;;;;;6308177;22;20218;-69
2022/11/24 01:33:32;;;;;;;18.10;4.13;;;;;;;;;;6308587;22;20182;-69
2022/11/24 01:35:58;;;;;;;19.10;4.53;;;;;;;;;;6308405;22;20149;-69
2022/11/24 01:38:25;;;;;;;14.77;4.37;;;;;;;;;;6308416;22;20160;-69
2022/11/24 01:41:01;;;;;;;18.23;4.83;;;;;;;;;;6308567;22;20163;-68
2022/11/24 01:43:27;;;;;;;16.23;4.53;;;;;;;;;;6308029;22;20140;-70
2022/11/24 01:45:53;;;;;;;20.97;4.90;;;;;;;;;;6308729;22;20203;-69
2022/11/24 01:48:25;;;;;;;18.20;4.83;;;;;;;;;;6308364;22;20203;-68
2022/11/24 01:50:54;;;;;;;22.00;5.00;;;;;;;;;;6306415;22;20625;-69
2022/11/24 01:53:22;;;;;;;20.43;4.17;;;;;;;;;;6308061;22;20168;-67
2022/11/24 01:55:49;;;;;;;15.57;4.33;;;;;;;;;;6306203;22;20153;-68
2022/11/24 01:58:17;;;;;;;19.33;5.20;;;;;;;;;;6306243;22;20172;-68
2022/11/24 02:00:44;;;;;;;19.07;4.93;;;;;;;;;;6307434;22;20156;-68
2022/11/24 02:03:12;;;;;;;16.53;4.40;;;;;;;;;;6306295;22;20163;-68
2022/11/24 02:05:57;;;;;;;21.60;4.83;;;;;;;;;;6306127;22;20156;-67
2022/11/24 02:08:46;;;;;;;16.87;4.23;;;;;;;;;;6306368;22;20263;-67
2022/11/24 02:11:13;;;;;;;14.30;4.30;;;;;;;;;;6316536;22;20197;-66
2022/11/24 02:13:39;;;;;;;22.60;4.50;;;;;;;;;;6306191;22;20156;-67
2022/11/24 02:16:07;;;;;;;19.27;4.87;;;;;;;;;;6306393;22;20175;-66
2022/11/24 02:18:33;;;;;;;19.93;4.37;;;;;;;;;;6307462;22;20168;-69
2022/11/24 02:20:59;;;;;;;23.50;4.63;;;;;;;;;;6307683;22;20149;-69
2022/11/24 02:23:42;;;;;;;21.20;5.30;;;;;;;;;;6305994;22;20149;-69
2022/11/24 02:26:20;;;;;;;22.63;4.87;;;;;;;;;;6308059;22;20133;-68
2022/11/24 02:28:46;;;;;;;14.30;5.10;;;;;;;;;;6307902;22;20196;-69
2022/11/24 02:31:13;;;;;;;18.73;5.70;;;;;;;;;;6306095;22;20180;-69
2022/11/24 02:33:39;;;;;;;17.07;4.93;;;;;;;;;;6308355;22;20145;-70
2022/11/24 02:36:05;;;;;;;16.97;4.70;;;;;;;;;;6307725;22;20587;-69
2022/11/24 02:38:32;;;;;;;21.53;5.20;;;;;;;;;;6305785;22;20172;-70
2022/11/24 02:41:00;;;;;;;14.47;5.07;;;;;;;;;;6306026;22;20191;-69
2022/11/24 02:43:28;;;;;;;21.83;5.27;;;;;;;;;;6308143;22;20156;-69
2022/11/24 02:45:54;;;;;;;24.50;5.23;;;;;;;;;;6307676;22;20148;-69
2022/11/24 02:48:20;;;;;;;18.07;5.57;;;;;;;;;;6305994;22;20265;-69
2022/11/24 02:50:46;;;;;;;20.07;5.50;;;;;;;;;;6307427;22;20172;-69
2022/11/24 02:53:12;;;;;;;20.40;5.00;;;;;;;;;;6307811;22;20149;-70
2022/11/24 02:55:37;;;;;;;19.97;5.07;;;;;;;;;;6306051;22;20176;-69
2022/11/24 02:58:03;;;;;;;15.57;3.83;;;;;;;;;;6307524;22;20168;-69
2022/11/24 03:00:29;;;;;;;19.83;4.93;;;;;;;;;;6307622;22;20159;-69
2022/11/24 03:02:55;;;;;;;17.53;4.40;;;;;;;;;;6319705;22;20278;-69
2022/11/24 03:05:22;;;;;;;18.60;4.40;;;;;;;;;;6320408;22;20160;-69
2022/11/24 03:07:48;;;;;;;21.53;4.27;;;;;;;;;;6320014;22;20181;-69
2022/11/24 03:10:14;;;;;;;18.97;5.13;;;;;;;;;;6314511;22;20243;-70
2022/11/24 03:12:40;;;;;;;28.73;5.40;;;;;;;;;;6308786;22;20148;-69
2022/11/24 03:15:07;;;;;;;22.20;4.27;;;;;;;;;;6307858;22;20164;-68
2022/11/24 03:17:33;;;;;;;19.00;4.40;;;;;;;;;;6307755;22;20156;-69
2022/11/24 03:20:00;;;;;;;24.73;6.17;;;;;;;;;;6309398;22;20471;-69
2022/11/24 03:22:26;;;;;;;19.80;4.50;;;;;;;;;;6309629;22;20235;-69
2022/11/24 03:24:52;;;;;;;22.03;5.37;;;;;;;;;;6307835;22;20214;-69
2022/11/24 03:27:18;;;;;;;17.37;4.77;;;;;;;;;;6309197;22;20153;-70
2022/11/24 03:29:44;;;;;;;19.00;4.60;;;;;;;;;;6307617;22;20237;-70
2022/11/24 03:32:10;;;;;;;22.77;4.67;;;;;;;;;;6309506;22;20194;-69
2022/11/24 03:34:36;;;;;;;20.90;5.33;;;;;;;;;;6309112;22;20470;-68
2022/11/24 03:37:02;;;;;;;17.97;4.63;;;;;;;;;;6307625;22;20587;-70
2022/11/24 03:39:28;;;;;;;21.20;5.00;;;;;;;;;;6309224;22;20225;-69
2022/11/24 03:41:54;;;;;;;25.03;5.67;;;;;;;;;;6307646;22;20157;-69
2022/11/24 03:44:20;;;;;;;24.37;5.00;;;;;;;;;;6309250;22;20202;-69
2022/11/24 03:46:46;;;;;;;25.43;5.80;;;;;;;;;;6307556;22;20153;-70
2022/11/24 03:49:12;;;;;;;19.63;5.27;;;;;;;;;;6307436;22;20184;-69
2022/11/24 03:51:38;;;;;;;23.07;5.70;;;;;;;;;;6309253;22;20194;-70
2022/11/24 03:54:04;;;;;;;19.03;5.20;;;;;;;;;;6309060;22;20149;-69
2022/11/24 03:56:30;;;;;;;22.13;7.03;;;;;;;;;;6308881;22;20149;-69
2022/11/24 03:58:56;;;;;;;17.87;4.87;;;;;;;;;;6309016;22;20164;-69
2022/11/24 04:01:21;;;;;;;21.80;5.83;;;;;;;;;;6307445;22;20181;-70
2022/11/24 04:03:47;;;;;;;17.50;5.23;;;;;;;;;;6309265;22;20180;-69
2022/11/24 04:06:13;;;;;;;20.73;5.07;;;;;;;;;;6309510;22;20477;-69
2022/11/24 04:08:39;;;;;;;23.40;5.10;;;;;;;;;;6307212;22;20614;-66
2022/11/24 04:11:06;;;;;;;29.33;4.97;;;;;;;;;;6307418;22;20176;-68
2022/11/24 04:13:31;;;;;;;20.20;5.53;;;;;;;;;;6307371;22;20168;-69
2022/11/24 04:15:57;;;;;;;28.13;5.60;;;;;;;;;;6308888;22;20206;-69
2022/11/24 04:18:23;;;;;;;20.77;5.07;;;;;;;;;;6308618;22;20169;-70
2022/11/24 04:20:50;;;;;;;19.80;4.47;;;;;;;;;;6307154;22;20206;-69
2022/11/24 04:23:16;;;;;;;21.80;5.27;;;;;;;;;;6307104;22;20598;-70
2022/11/24 04:25:42;;;;;;;21.80;5.30;;;;;;;;;;6309045;22;20149;-69
2022/11/24 04:28:08;;;;;;;19.33;4.73;;;;;;;;;;6307223;22;20245;-70
2022/11/24 04:30:37;;;;;;;22.23;5.37;;;;;;;;;;6309214;22;20169;-69
2022/11/24 04:33:03;;;;;;;20.43;5.07;;;;;;;;;;6309435;22;20525;-68
2022/11/24 04:35:29;;;;;;;27.57;6.00;;;;;;;;;;6307127;22;20153;-70
2022/11/24 04:37:55;;;;;;;20.03;5.27;;;;;;;;;;6309157;22;20165;-69
2022/11/24 04:40:21;;;;;;;22.00;5.93;;;;;;;;;;6308642;22;20152;-69
2022/11/24 04:42:54;;;;;;;29.73;5.97;;;;;;;;;;6307004;22;20183;-70
2022/11/24 04:45:20;;;;;;;25.30;6.20;;;;;;;;;;6308857;22;20496;-70
2022/11/24 04:47:45;;;;;;;23.83;6.57;;;;;;;;;;6308308;22;20227;-69
2022/11/24 04:50:11;;;;;;;20.50;5.73;;;;;;;;;;6306835;22;20180;-70
2022/11/24 04:52:37;;;;;;;27.47;6.23;;;;;;;;;;6306797;22;20232;-69
2022/11/24 04:55:03;;;;;;;24.47;6.27;;;;;;;;;;6308767;22;20512;-70
2022/11/24 04:57:29;;;;;;;22.73;5.60;;;;;;;;;;6306725;22;20497;-71
2022/11/24 04:59:55;;;;;;;26.30;5.53;;;;;;;;;;6306849;22;20156;-69
2022/11/24 05:02:21;;;;;;;32.13;5.87;;;;;;;;;;6307122;22;20175;-69
2022/11/24 05:04:47;;;;;;;21.83;5.63;;;;;;;;;;6309235;22;20592;-70
2022/11/24 05:07:14;;;;;;;24.77;5.20;;;;;;;;;;6306730;22;20235;-69
2022/11/24 05:12:24;;;;;;;23.50;5.00;;;;;;;;;;6308608;22;20198;-69
2022/11/24 05:14:51;;;;;;;26.80;5.43;;;;;;;;;;6306371;22;20235;-69
2022/11/24 05:17:16;;;;;;;23.17;5.60;;;;;;;;;;6306438;22;20159;-69
2022/11/24 05:19:42;;;;;;;19.47;4.90;;;;;;;;;;6307789;22;20176;-69
2022/11/24 05:22:08;;;;;;;28.87;6.33;;;;;;;;;;6308613;22;20152;-69
2022/11/24 05:24:34;;;;;;;26.17;5.97;;;;;;;;;;6307924;22;20152;-69
2022/11/24 05:27:00;;;;;;;28.90;5.33;;;;;;;;;;6307996;22;20153;-68
2022/11/24 05:29:26;;;;;;;23.50;5.80;;;;;;;;;;6305909;22;20509;-70
2022/11/24 05:31:52;;;;;;;24.27;5.93;;;;;;;;;;6306446;22;20160;-70
2022/11/24 05:34:18;;;;;;;28.03;5.40;;;;;;;;;;6307310;22;20156;-70
2022/11/24 05:36:53;;;;;;;21.43;4.67;;;;;;;;;;6306531;22;20149;-69
2022/11/24 05:39:19;;;;;;;27.00;5.90;;;;;;;;;;6306472;22;20172;-69
2022/11/24 05:41:46;;;;;;;30.10;4.97;;;;;;;;;;6308223;22;20456;-69
2022/11/24 05:44:11;;;;;;;22.60;5.23;;;;;;;;;;6308468;22;20176;-69
2022/11/24 05:46:37;;;;;;;22.97;5.00;;;;;;;;;;6306260;22;20573;-69
2022/11/24 05:49:03;;;;;;;24.23;6.67;;;;;;;;;;6307847;22;20168;-69
2022/11/24 05:51:30;;;;;;;27.57;5.63;;;;;;;;;;6306736;22;20160;-70
2022/11/24 05:53:56;;;;;;;22.47;5.20;;;;;;;;;;6308075;22;20148;-69
2022/11/24 05:56:22;;;;;;;25.13;5.67;;;;;;;;;;6308454;22;20223;-70
2022/11/24 05:58:47;;;;;;;27.97;5.43;;;;;;;;;;6308101;22;20218;-69
2022/11/24 06:01:13;;;;;;;24.90;6.07;;;;;;;;;;6308268;22;20153;-69
2022/11/24 06:03:40;;;;;;;31.57;4.83;;;;;;;;;;6307925;22;20155;-69
2022/11/24 06:06:06;;;;;;;27.87;5.40;;;;;;;;;;6307961;22;20251;-70
2022/11/24 06:08:33;;;;;;;24.57;6.17;;;;;;;;;;6306149;22;20183;-69
2022/11/24 06:11:15;;;;;;;30.07;6.30;;;;;;;;;;6306049;22;20179;-70
2022/11/24 06:13:42;;;;;;;30.93;6.00;;;;;;;;;;6308342;22;20454;-70
2022/11/24 06:16:07;;;;;;;17.97;4.60;;;;;;;;;;6308264;22;20149;-69
2022/11/24 06:18:33;;;;;;;25.90;5.13;;;;;;;;;;6306066;22;20633;-69
2022/11/24 06:21:02;;;;;;;22.97;4.80;;;;;;;;;;6309879;22;20156;-68
2022/11/24 06:23:27;;;;;;;16.43;5.37;;;;;;;;;;6307907;22;20152;-69
2022/11/24 06:25:53;;;;;;;26.67;5.30;;;;;;;;;;6307743;22;20595;-69
2022/11/24 06:28:19;;;;;;;22.20;4.63;;;;;;;;;;6307743;22;20219;-68
2022/11/24 06:30:45;;;;;;;17.93;4.50;;;;;;;;;;6307932;22;20171;-69
2022/11/24 06:33:11;;;;;;;17.77;4.37;;;;;;;;;;6307809;22;20588;-70
2022/11/24 06:35:37;;;;;;;20.27;4.67;;;;;;;;;;6306306;22;20609;-69
2022/11/24 06:38:04;;;;;;;22.97;5.33;;;;;;;;;;6307703;22;20164;-70
2022/11/24 06:40:30;;;;;;;28.50;4.83;;;;;;;;;;6306313;22;20164;-68
2022/11/24 06:42:56;;;;;;;22.50;4.40;;;;;;;;;;6307425;22;20151;-69
2022/11/24 06:45:22;;;;;;;18.67;4.90;;;;;;;;;;6307807;22;20579;-68
2022/11/24 06:47:48;;;;;;;16.53;4.50;;;;;;;;;;6307382;22;20153;-69
2022/11/24 06:50:14;;;;;;;25.77;4.70;;;;;;;;;;6308129;22;20185;-69
2022/11/24 06:52:40;;;;;;;20.63;5.27;;;;;;;;;;6310145;22;20149;-68
2022/11/24 06:55:06;;;;;;;26.67;4.90;;;;;;;;;;6309830;22;20180;-68
2022/11/24 06:57:32;;;;;;;16.63;5.07;;;;;;;;;;6309711;22;20227;-68
2022/11/24 06:59:58;;;;;;;23.47;3.90;;;;;;;;;;6308210;22;20574;-68
2022/11/24 07:02:24;;;;;;;17.13;4.20;;;;;;;;;;6308326;22;20163;-68
2022/11/24 07:04:50;;;;;;;18.87;4.37;;;;;;;;;;6310145;22;20153;-68
2022/11/24 07:07:16;;;;;;;20.57;4.63;;;;;;;;;;6310498;22;20233;-68
2022/11/24 07:09:42;;;;;;;20.10;3.80;;;;;;;;;;6308690;22;20184;-68
2022/11/24 07:12:08;;;;;;;16.90;4.10;;;;;;;;;;6308699;22;20187;-68
2022/11/24 07:14:34;;;;;;;12.73;3.60;;;;;;;;;;6309654;22;20184;-68
2022/11/24 07:17:01;;;;;;;14.87;3.20;;;;;;;;;;6309220;22;20144;-68
2022/11/24 07:19:27;;;;;;;15.10;3.83;;;;;;;;;;6309075;22;20172;-68
2022/11/24 07:21:53;;;;;;;14.03;3.63;;;;;;;;;;6309009;22;20159;-68
2022/11/24 07:24:19;;;;;;;13.07;4.03;;;;;;;;;;6310137;22;20153;-68
2022/11/24 07:26:45;;;;;;;11.47;3.00;;;;;;;;;;6308895;22;20152;-68
2022/11/24 07:29:11;;;;;;;13.43;3.53;;;;;;;;;;6308781;22;20523;-68
2022/11/24 07:31:37;;;;;;;12.30;3.97;;;;;;;;;;6308968;22;20172;-68
2022/11/24 07:34:03;;;;;;;15.40;3.20;;;;;;;;;;6307178;22;20148;-68
2022/11/24 07:36:29;;;;;;;14.33;3.27;;;;;;;;;;6308784;22;20155;-68
2022/11/24 07:38:55;;;;;;;13.10;3.20;;;;;;;;;;6308820;22;20161;-68
2022/11/24 07:41:21;;;;;;;10.63;3.03;;;;;;;;;;6307196;22;20157;-68
2022/11/24 07:43:47;;;;;;;11.17;2.47;;;;;;;;;;6306930;22;20213;-68
2022/11/24 07:46:14;;;;;;;12.37;2.87;;;;;;;;;;6307108;22;20163;-68
2022/11/24 07:48:40;;;;;;;7.33;2.57;;;;;;;;;;6308575;22;20661;-68
2022/11/24 07:51:06;;;;;;;7.57;2.17;;;;;;;;;;6308951;22;20511;-68
2022/11/24 07:53:33;;;;;;;6.70;2.40;;;;;;;;;;6308765;22;20589;-68
2022/11/24 07:56:00;;;;;;;7.50;2.20;;;;;;;;;;6308582;22;20195;-69
2022/11/24 07:58:26;;;;;;;9.87;1.87;;;;;;;;;;6308560;22;20176;-68
2022/11/24 08:00:52;;;;;;;2.93;1.60;;;;;;;;;;6308615;22;20149;-68
2022/11/24 08:03:18;;;;;;;5.20;1.93;;;;;;;;;;6308756;22;20156;-68
2022/11/24 08:05:52;;;;;;;7.17;1.70;;;;;;;;;;6306970;22;20163;-68
2022/11/24 08:08:18;;;;;;;3.90;1.47;;;;;;;;;;6308834;22;20224;-69
2022/11/24 08:10:44;;;;;;;7.07;1.80;;;;;;;;;;6308835;22;20175;-68
2022/11/24 08:13:10;;;;;;;4.27;1.87;;;;;;;;;;6308572;22;20148;-68
2022/11/24 08:15:36;;;;;;;6.00;1.87;;;;;;;;;;6306875;22;20248;-69
2022/11/24 08:18:02;;;;;;;5.70;1.83;;;;;;;;;;6306887;22;20168;-68
2022/11/24 08:20:28;;;;;;;3.43;1.50;;;;;;;;;;6306906;22;20202;-68
2022/11/24 08:22:58;;;;;;;7.00;2.67;;;;;;;;;;6308457;22;20152;-69
2022/11/24 08:25:25;;;;;;;8.67;1.70;;;;;;;;;;6307441;22;20197;-68
2022/11/24 08:27:52;;;;;;;6.17;2.07;;;;;;;;;;6306611;22;20194;-68
2022/11/24 08:30:18;;;;;;;8.87;1.87;;;;;;;;;;6308558;22;20164;-68
2022/11/24 08:32:44;;;;;;;4.30;2.00;;;;;;;;;;6308466;22;20194;-68
2022/11/24 08:35:11;;;;;;;5.90;1.70;;;;;;;;;;6306751;22;20156;-68
2022/11/24 08:37:37;;;;;;;4.63;2.13;;;;;;;;;;6306422;22;20235;-68
2022/11/24 08:40:03;;;;;;;7.83;2.00;;;;;;;;;;6306491;22;20176;-68
2022/11/24 08:42:29;;;;;;;5.73;2.00;;;;;;;;;;6308117;22;20148;-68
2022/11/24 08:44:55;;;;;;;10.63;2.13;;;;;;;;;;6308831;22;20162;-68
2022/11/24 08:47:21;;;;;;;6.83;2.00;;;;;;;;;;6320826;22;20183;-68
2022/11/24 08:49:48;;;;;;;5.77;1.97;;;;;;;;;;6320722;22;20184;-68
2022/11/24 08:52:15;;;;;;;5.77;2.00;;;;;;;;;;6312374;22;20623;-69
2022/11/24 08:54:43;;;;;;;11.13;2.27;;;;;;;;;;6311531;22;20202;-68
2022/11/24 08:57:09;;;;;;;5.53;2.27;;;;;;;;;;6308502;22;20149;-68
2022/11/24 08:59:35;;;;;;;5.60;2.30;;;;;;;;;;6306741;22;20180;-69
2022/11/24 09:02:01;;;;;;;9.07;2.90;;;;;;;;;;6308243;22;20223;-68
2022/11/24 09:04:27;;;;;;;5.13;1.80;;;;;;;;;;6308746;22;20157;-69
2022/11/24 09:06:53;;;;;;;6.17;2.50;;;;;;;;;;6307211;22;20160;-68
2022/11/24 09:09:19;;;;;;;7.17;2.47;;;;;;;;;;6308294;22;20172;-68
2022/11/24 09:11:44;;;;;;;10.07;4.13;;;;;;;;;;6306955;22;20549;-68
2022/11/24 09:14:10;;;;;;;12.17;2.67;;;;;;;;;;6308292;22;20148;-68
2022/11/24 09:16:36;;;;;;;8.50;2.87;;;;;;;;;;6308551;22;20238;-68
2022/11/24 09:19:04;;;;;;;11.40;2.87;;;;;;;;;;6308412;22;20677;-68
2022/11/24 09:21:31;;;;;;;7.93;2.57;;;;;;;;;;6306557;22;20161;-68
2022/11/24 09:23:57;;;;;;;6.70;2.50;;;;;;;;;;6307949;22;20163;-68
2022/11/24 09:26:27;;;;;;;8.83;2.93;;;;;;;;;;6308437;22;20198;-68
2022/11/24 09:28:55;;;;;;;8.13;3.10;;;;;;;;;;6305935;22;20199;-68
2022/11/24 09:31:22;;;;;;;9.60;2.97;;;;;;;;;;6307592;22;20622;-68
2022/11/24 09:33:48;;;;;;;12.63;2.97;;;;;;;;;;6306035;22;20153;-68
2022/11/24 09:36:14;;;;;;;8.37;2.97;;;;;;;;;;6306057;22;20156;-68
2022/11/24 09:38:40;;;;;;;7.90;2.70;;;;;;;;;;6307643;22;20168;-68
2022/11/24 09:41:20;;;;;;;13.00;3.27;;;;;;;;;;6305984;22;20160;-68
2022/11/24 09:43:56;;;;;;;11.00;3.10;;;;;;;;;;6306026;22;20141;-68
2022/11/24 09:46:32;;;;;;;9.70;3.87;;;;;;;;;;6308070;22;20136;-69
2022/11/24 09:48:58;;;;;;;11.50;3.73;;;;;;;;;;6307500;22;20175;-68
2022/11/24 09:51:27;;;;;;;9.67;3.40;;;;;;;;;;6307913;22;20168;-68
2022/11/24 09:54:01;;;;;;;9.73;2.80;;;;;;;;;;6306031;22;20155;-68
2022/11/24 09:56:28;;;;;;;13.03;2.87;;;;;;;;;;6307537;22;20177;-68
2022/11/24 09:58:58;;;;;;;12.07;3.30;;;;;;;;;;6307697;22;20171;-68
2022/11/24 10:01:32;;;;;;;11.10;2.90;;;;;;;;;;6307342;22;20190;-68
2022/11/24 10:03:58;;;;;;;10.40;2.83;;;;;;;;;;6307563;22;20148;-68
2022/11/24 10:06:26;;;;;;;8.60;3.20;;;;;;;;;;6307417;22;20542;-68
2022/11/24 10:09:11;;;;;;;11.43;2.83;;;;;;;;;;6307567;22;20208;-68
2022/11/24 10:11:56;;;;;;;14.40;3.03;;;;;;;;;;6305832;22;20633;-68
2022/11/24 10:14:28;;;;;;;10.90;3.37;;;;;;;;;;6305949;22;20152;-66
2022/11/24 10:17:02;;;;;;;10.20;3.00;;;;;;;;;;6307722;22;20156;-68
2022/11/24 10:19:49;;;;;;;9.77;3.63;;;;;;;;;;6305759;22;20245;-68
2022/11/24 10:22:22;;;;;;;9.97;3.03;;;;;;;;;;6308680;22;20152;-68
2022/11/24 10:24:57;;;;;;;11.47;3.23;;;;;;;;;;6310334;22;20496;-69
2022/11/24 10:27:30;;;;;;;11.63;3.13;;;;;;;;;;6310585;22;20592;-68
2022/11/24 10:29:56;;;;;;;12.67;3.83;;;;;;;;;;6308667;22;20203;-68
2022/11/24 10:32:39;;;;;;;10.97;3.53;;;;;;;;;;6310752;22;20180;-69
2022/11/24 10:35:25;;;;;;;10.93;3.37;;;;;;;;;;6310201;22;20152;-68
2022/11/24 10:37:57;;;;;;;13.10;3.23;;;;;;;;;;6309889;22;20148;-69
2022/11/24 10:40:28;;;;;;;15.17;3.80;;;;;;;;;;6309896;22;20148;-68
2022/11/24 10:42:54;;;;;;;15.27;3.70;;;;;;;;;;6307907;22;20147;-69
2022/11/24 10:45:21;;;;;;;11.07;2.90;;;;;;;;;;6309168;22;20176;-68
2022/11/24 10:47:48;;;;;;;14.93;4.00;;;;;;;;;;6309161;22;20156;-68
2022/11/24 10:50:46;;;;;;;12.30;3.20;;;;;;;;;;6309455;22;20571;-68
2022/11/24 10:53:12;;;;;;;13.93;3.70;;;;;;;;;;6258302;22;20157;-68
2022/11/24 10:55:56;;;;;;;14.73;3.20;;;;;;;;;;6309061;22;20701;-68
2022/11/24 10:58:25;;;;;;;11.80;3.70;;;;;;;;;;6309109;22;20160;-68
2022/11/24 11:00:50;;;;;;;13.43;3.20;;;;;;;;;;6307836;22;20171;-68
2022/11/24 11:03:19;;;;;;;10.40;3.10;;;;;;;;;;6309226;22;20153;-68
2022/11/24 11:05:51;;;;;;;16.13;4.50;;;;;;;;;;6309248;22;20598;-67
2022/11/24 11:08:22;;;;;;;14.30;3.90;;;;;;;;;;6309109;22;20172;-68
2022/11/24 11:10:49;;;;;;;16.53;3.87;;;;;;;;;;6309017;22;20172;-67
2022/11/24 11:13:22;;;;;;;6.30;2.83;;;;;;;;;;6309426;22;20145;-68
2022/11/24 11:15:48;;;;;;;12.50;3.27;;;;;;;;;;6307380;22;20163;-68
2022/11/24 11:18:15;;;;;;;14.17;3.27;;;;;;;;;;6308801;22;20165;-67
2022/11/24 11:20:48;;;;;;;14.13;3.80;;;;;;;;;;6309346;22;20438;-67
2022/11/24 11:23:19;;;;;;;16.93;4.17;;;;;;;;;;6307378;22;20156;-68
2022/11/24 11:25:44;;;;;;;14.17;3.90;;;;;;;;;;6309025;22;20152;-68
2022/11/24 11:28:10;;;;;;;10.50;3.30;;;;;;;;;;6308818;22;20188;-68
2022/11/24 11:30:36;;;;;;;10.83;3.50;;;;;;;;;;6308825;22;20288;-68
2022/11/24 11:33:02;;;;;;;14.50;3.43;;;;;;;;;;6306789;22;20156;-68
2022/11/24 11:35:32;;;;;;;11.23;3.50;;;;;;;;;;6307157;22;20286;-68
2022/11/24 11:38:00;;;;;;;12.33;3.73;;;;;;;;;;6308693;22;20286;-68
2022/11/24 11:40:28;;;;;;;15.77;4.07;;;;;;;;;;6308733;22;20153;-68
2022/11/24 11:43:14;;;;;;;12.87;3.37;;;;;;;;;;6309069;22;20227;-68
2022/11/24 11:45:43;;;;;;;18.03;4.17;;;;;;;;;;6308310;22;20163;-68
2022/11/24 11:48:18;;;;;;;13.53;4.00;;;;;;;;;;6308412;22;20176;-68
2022/11/24 11:50:44;;;;;;;16.27;4.03;;;;;;;;;;6309035;22;20211;-68
2022/11/24 11:53:22;;;;;;;13.83;3.60;;;;;;;;;;6308790;22;20149;-68
2022/11/24 11:56:09;;;;;;;15.83;4.83;;;;;;;;;;6308600;22;20149;-68
2022/11/24 11:58:47;;;;;;;16.53;3.77;;;;;;;;;;6307074;22;20173;-67
2022/11/24 12:01:29;;;;;;;15.03;4.30;;;;;;;;;;6309125;22;20159;-67
2022/11/24 12:03:55;;;;;;;15.10;4.33;;;;;;;;;;6307049;22;20147;-70
2022/11/24 12:06:26;;;;;;;13.90;4.10;;;;;;;;;;6308948;22;20228;-69
2022/11/24 12:08:52;;;;;;;11.87;4.03;;;;;;;;;;6308563;22;20179;-70
2022/11/24 12:11:27;;;;;;;17.97;4.90;;;;;;;;;;6308758;22;20177;-68
2022/11/24 12:14:12;;;;;;;13.40;3.63;;;;;;;;;;6308387;22;20136;-68
2022/11/24 12:16:56;;;;;;;15.20;4.00;;;;;;;;;;6308915;22;20172;-69
2022/11/24 12:19:25;;;;;;;18.60;5.30;;;;;;;;;;6306672;22;20176;-68
2022/11/24 12:21:57;;;;;;;20.40;4.77;;;;;;;;;;6306893;22;20160;-68
2022/11/24 12:24:29;;;;;;;14.47;3.90;;;;;;;;;;6306731;22;20476;-68
2022/11/24 12:26:55;;;;;;;14.37;5.03;;;;;;;;;;6308670;22;20181;-68
2022/11/24 12:29:38;;;;;;;17.77;4.33;;;;;;;;;;6306429;22;20646;-68
2022/11/24 12:32:04;;;;;;;18.07;4.10;;;;;;;;;;6308423;22;20136;-67
2022/11/24 12:34:33;;;;;;;16.63;4.07;;;;;;;;;;6308434;22;20613;-68
2022/11/24 12:36:59;;;;;;;14.83;4.13;;;;;;;;;;6306607;22;20160;-68
2022/11/24 12:39:30;;;;;;;19.50;5.00;;;;;;;;;;6306597;22;20180;-68
2022/11/24 12:42:04;;;;;;;12.27;4.23;;;;;;;;;;6308628;22;20446;-67
2022/11/24 12:44:54;;;;;;;16.97;4.57;;;;;;;;;;6308194;22;20133;-68
2022/11/24 12:47:26;;;;;;;11.00;3.03;;;;;;;;;;6306630;22;20571;-69
2022/11/24 12:50:02;;;;;;;16.00;4.40;;;;;;;;;;6308126;22;20183;-67
2022/11/24 12:52:49;;;;;;;16.37;4.87;;;;;;;;;;6308571;22;20143;-68
2022/11/24 12:55:20;;;;;;;15.93;4.17;;;;;;;;;;6308716;22;20160;-68
2022/11/24 12:57:46;;;;;;;13.07;3.73;;;;;;;;;;6308854;22;20641;-68
2022/11/24 13:00:34;;;;;;;14.13;3.80;;;;;;;;;;6306511;22;20160;-67
2022/11/24 13:03:09;;;;;;;17.70;3.97;;;;;;;;;;6308484;22;20186;-67
2022/11/24 13:05:47;;;;;;;11.50;3.40;;;;;;;;;;6306881;22;20148;-67
2022/11/24 13:08:14;;;;;;;15.07;3.63;;;;;;;;;;6308156;22;20172;-67
2022/11/24 13:10:41;;;;;;;18.33;4.77;;;;;;;;;;6307935;22;20204;-68
2022/11/24 13:13:11;;;;;;;11.87;3.30;;;;;;;;;;6306448;22;20156;-68
2022/11/24 13:15:52;;;;;;;14.23;4.13;;;;;;;;;;6306369;22;20183;-67
2022/11/24 13:18:37;;;;;;;14.97;4.33;;;;;;;;;;6306261;22;20177;-68
2022/11/24 13:21:03;;;;;;;18.20;4.20;;;;;;;;;;6308234;22;20153;-68
2022/11/24 13:23:29;;;;;;;15.57;3.60;;;;;;;;;;6307817;22;20175;-68
2022/11/24 13:26:20;;;;;;;19.03;4.17;;;;;;;;;;6308070;22;20188;-68
2022/11/24 13:29:00;;;;;;;14.03;4.03;;;;;;;;;;6308505;22;20184;-69
2022/11/24 13:31:26;;;;;;;17.73;3.77;;;;;;;;;;6308010;22;20557;-69
2022/11/24 13:33:52;;;;;;;12.40;3.50;;;;;;;;;;6307959;22;20148;-69
2022/11/24 13:36:24;;;;;;;17.87;3.97;;;;;;;;;;6306207;22;20152;-68
2022/11/24 13:38:53;;;;;;;14.17;3.87;;;;;;;;;;6306052;22;20177;-68
2022/11/24 13:41:31;;;;;;;13.07;4.23;;;;;;;;;;6307678;22;20149;-68
2022/11/24 13:44:15;;;;;;;16.17;3.70;;;;;;;;;;6308669;22;20196;-71
2022/11/24 13:46:58;;;;;;;17.00;4.17;;;;;;;;;;6309092;22;20152;-68
2022/11/24 13:49:24;;;;;;;14.93;3.97;;;;;;;;;;6281215;22;20526;-71
2022/11/24 13:52:17;;;;;;;9.10;3.17;;;;;;;;;;6281695;22;20203;-70
2022/11/24 13:54:43;;;;;;;15.30;4.50;;;;;;;;;;6308544;22;20648;-70
2022/11/24 13:57:28;;;;;;;17.73;4.00;;;;;;;;;;6308225;22;20149;-69
2022/11/24 13:59:59;;;;;;;15.53;4.07;;;;;;;;;;6281150;22;20160;-69
2022/11/24 14:02:25;;;;;;;12.07;3.60;;;;;;;;;;6308653;22;20144;-70
2022/11/24 14:04:51;;;;;;;14.90;3.80;;;;;;;;;;6308908;22;20195;-69
2022/11/24 14:07:17;;;;;;;13.33;3.57;;;;;;;;;;6308410;22;20152;-69
2022/11/24 14:09:45;;;;;;;14.63;3.50;;;;;;;;;;6308175;22;20208;-71
2022/11/24 14:12:13;;;;;;;16.70;3.90;;;;;;;;;;6308348;22;20227;-69
2022/11/24 14:14:39;;;;;;;15.33;4.50;;;;;;;;;;6308354;22;20168;-70
2022/11/24 14:17:06;;;;;;;12.60;3.80;;;;;;;;;;6308241;22;20188;-70
2022/11/24 14:19:32;;;;;;;13.27;3.60;;;;;;;;;;6281273;22;20241;-70
2022/11/24 14:21:58;;;;;;;14.73;4.03;;;;;;;;;;6281720;22;20149;-70
2022/11/24 14:24:25;;;;;;;14.47;4.20;;;;;;;;;;6281343;22;20714;-71
2022/11/24 14:26:52;;;;;;;16.47;3.63;;;;;;;;;;6308528;22;20160;-70
2022/11/24 14:29:20;;;;;;;17.60;4.60;;;;;;;;;;6281381;22;20159;-71
2022/11/24 14:32:12;;;;;;;14.33;3.43;;;;;;;;;;6308591;22;20180;-71
2022/11/24 14:34:38;;;;;;;15.90;4.63;;;;;;;;;;6276852;22;20208;-70
2022/11/24 14:37:04;;;;;;;13.10;3.83;;;;;;;;;;6308308;22;20148;-71
2022/11/24 14:39:30;;;;;;;11.30;3.20;;;;;;;;;;6308234;22;20152;-71
2022/11/24 14:42:03;;;;;;;13.03;3.57;;;;;;;;;;6308653;22;20211;-72